This is the latest recevied weather packets stored in our database for station/object SV2BZQ-2. If no packets are shown the sender has not sent any weather packets the latest 10 day(s).
| Time | Temp. | Humidity | Pressure | Rain* | Wind** | Luminosity | Snow |
|---|---|---|---|---|---|---|---|
| 1776940647 | 17.22° C | 61% | 1014.4 hPa | 0 mm | - | 788 W/m² | - |
| 1776938288 | 15.56° C | 67% | 1015 hPa | 0 mm | - | 888 W/m² | - |
| 1776937581 | 15.56° C | 68% | 1015.1 hPa | 0 mm | - | 912 W/m² | - |
| 1776936303 | 13.89° C | 77% | 1015.4 hPa | 0 mm | - | 853 W/m² | - |
| 1776931562 | 11.11° C | 86% | 1016 hPa | 0 mm | - | 332 W/m² | - |
| 1776931294 | 11.11° C | 87% | 1016 hPa | 0 mm | - | 329 W/m² | - |
| 1776929752 | 11.11° C | 89% | 1016.2 hPa | 0 mm | - | 258 W/m² | - |
| 1776928758 | 10.56° C | 90% | 1016 hPa | 0 mm | - | 202 W/m² | - |
| 1776925985 | 10° C | 92% | 1015.9 hPa | 0 mm | - | 151 W/m² | - |
| 1776923982 | 9.44° C | 93% | 1015.8 hPa | 0 mm | - | 306 W/m² | - |
| 1776922835 | 9.44° C | 94% | 1015.6 hPa | 0 mm | - | 120 W/m² | - |
| 1776922521 | 8.89° C | 94% | 1015.6 hPa | 0 mm | - | 104 W/m² | - |
| 1776922199 | 8.89° C | 94% | 1015.5 hPa | 0 mm | - | 93 W/m² | - |
| 1776918168 | 8.33° C | 94% | 1015.1 hPa | 0 mm | - | 11 W/m² | - |
| 1776916767 | 8.33° C | 94% | 1014.9 hPa | 0.25 mm | - | 0 W/m² | - |
| 1776913214 | 8.33° C | 95% | 1014.9 hPa | 0.51 mm | - | 0 W/m² | - |
| 1776912057 | 8.89° C | 95% | 1014.8 hPa | 0.76 mm | - | 0 W/m² | - |
| 1776910511 | 8.89° C | 95% | 1014.8 hPa | 1.02 mm | - | 0 W/m² | - |
| 1776910207 | 8.89° C | 95% | 1014.9 hPa | 1.02 mm | - | 0 W/m² | - |
| 1776909300 | 10° C | 95% | 1014.2 hPa | 0.51 mm | - | 0 W/m² | - |
| 1776909223 | 10° C | 95% | 1013.9 hPa | 0.51 mm | - | 0 W/m² | - |
| 1776908932 | 9.44° C | 95% | 1014.8 hPa | 0.51 mm | - | 0 W/m² | - |
| 1776907184 | 9.44° C | 95% | 1014.9 hPa | 0.76 mm | - | 0 W/m² | - |
| 1776906655 | 11.11° C | 94% | 1014.1 hPa | 4.57 mm | - | 0 W/m² | - |
| 1776905928 | 9.44° C | 95% | 1014.7 hPa | 1.27 mm | - | 0 W/m² | - |
* Rain latest hour (hover to see other rain measurements)
** Current wind speed in m/s (hover to see current wind gust speed)